Time;durP1;ratioP1;P1;durP2;ratioP2;P2;SDS_P1;SDS_P2;PMS_P1;PMS_P2;Temp;Humidity;BMP_temperature;BMP_pressure;BME280_temperature;BME280_humidity;BME280_pressure;Samples;Min_cycle;Max_cycle;Signal;HPM_P1;HPM_P2
2022/02/25 00:01:51;;;;;;;10.80;6.60;;;;;;;19.73;32.25;101487.61;104423;1311;61360;-83
2022/02/25 00:04:53;;;;;;;;;;;;;;;;;;;;;
2022/02/25 00:08:03;;;;;;;10.40;6.50;;;;;;;19.73;32.28;101483.70;103002;1323;71553;-81
2022/02/25 00:10:51;;;;;;;9.80;6.70;;;;;;;19.74;32.34;101481.14;102980;1323;75642;-82
2022/02/25 00:13:44;;;;;;;10.80;6.70;;;;;;;19.74;32.28;101479.36;102877;1323;61224;-84
2022/02/25 00:16:30;;;;;;;10.90;6.80;;;;;;;19.74;32.20;101475.98;103063;1323;61757;-85
2022/02/25 00:19:16;;;;;;;10.00;6.30;;;;;;;19.74;32.27;101473.09;102933;1323;73921;-84
2022/02/25 00:22:14;;;;;;;10.50;6.60;;;;;;;19.74;32.29;101470.41;103051;1322;75885;-83
2022/02/25 00:25:04;;;;;;;12.40;6.80;;;;;;;19.74;32.21;101468.10;102991;1323;62555;-85
2022/02/25 00:27:43;;;;;;;10.00;6.80;;;;;;;19.74;32.25;101470.08;103061;1323;61253;-85
2022/02/25 00:30:15;;;;;;;10.40;6.70;;;;;;;19.73;32.14;101466.72;102954;1322;72902;-83
2022/02/25 00:33:14;;;;;;;11.50;6.90;;;;;;;19.74;32.21;101463.66;102778;1323;75025;-78
2022/02/25 00:36:01;;;;;;;11.50;6.80;;;;;;;19.73;32.17;101460.83;102756;1329;61935;-84
2022/02/25 00:38:47;;;;;;;10.50;6.50;;;;;;;19.74;32.22;101457.23;102680;1329;61348;-84
2022/02/25 00:41:41;;;;;;;9.80;6.30;;;;;;;19.74;32.15;101457.23;102750;1329;74060;-82
2022/02/25 00:44:38;;;;;;;;;;;;;;;;;;;;;
2022/02/25 00:47:38;;;;;;;10.70;6.60;;;;;;;19.74;32.41;101451.85;103773;1317;61296;-86
2022/02/25 00:50:30;;;;;;;;;;;;;;;;;;;;;
2022/02/25 00:53:01;;;;;;;9.20;6.60;;;;;;;19.74;32.16;101452.21;103872;1317;74071;-81
2022/02/25 00:55:59;;;;;;;9.50;6.60;;;;;;;19.74;32.17;101447.75;103893;1317;76122;-84
2022/02/25 00:58:56;;;;;;;10.70;6.50;;;;;;;19.74;32.32;101447.75;103847;1317;61182;-81
2022/02/25 01:01:32;;;;;;;12.00;6.50;;;;;;;19.74;32.18;101443.46;104013;1316;61165;-83
2022/02/25 01:04:13;;;;;;;8.80;6.10;;;;;;;19.74;32.14;101440.60;103640;1317;72972;-84
2022/02/25 01:07:03;;;;;;;8.50;6.50;;;;;;;19.74;32.11;101438.43;103868;1317;74760;-81
2022/02/25 01:09:46;;;;;;;;;;;;;;;;;;;;;
2022/02/25 01:13:00;;;;;;;10.10;5.80;;;;;;;19.74;32.19;101433.83;103250;1319;59253;-86
2022/02/25 01:15:52;;;;;;;9.60;6.10;;;;;;;19.74;32.13;101433.63;103568;1317;71432;-85
2022/02/25 01:18:43;;;;;;;11.60;6.40;;;;;;;19.74;32.06;101426.69;102844;1323;73613;-84
2022/02/25 01:21:29;;;;;;;;;;;;;;;;;;;;;
2022/02/25 01:24:09;;;;;;;11.00;6.30;;;;;;;19.74;32.11;101421.66;103017;1323;61329;-83
2022/02/25 01:27:05;;;;;;;9.40;6.10;;;;;;;19.74;32.11;101419.32;102759;1323;74426;-79
2022/02/25 01:30:02;;;;;;;8.50;6.10;;;;;;;19.74;32.17;101415.80;102460;1330;74313;-84
2022/02/25 01:32:39;;;;;;;9.80;5.80;;;;;;;19.74;32.08;101410.98;102502;1332;61609;-81
2022/02/25 01:35:23;;;;;;;9.00;6.00;;;;;;;19.74;32.11;101408.97;102506;1330;61350;-84
2022/02/25 01:38:27;;;;;;;7.70;6.10;;;;;;;19.75;32.14;101402.55;102513;1332;72790;-85
2022/02/25 01:41:04;;;;;;;8.80;6.00;;;;;;;19.75;32.10;101397.52;102512;1332;74836;-89
2022/02/25 01:44:11;;;;;;;8.70;5.80;;;;;;;19.74;32.15;101389.69;102416;1332;61426;-84
2022/02/25 01:46:52;;;;;;;11.30;6.00;;;;;;;19.74;32.13;101386.48;102474;1331;61260;-83
2022/02/25 01:49:40;;;;;;;9.40;6.30;;;;;;;19.75;32.14;101386.64;102589;1326;72958;-83
2022/02/25 01:52:49;;;;;;;;;;;;;;;;;;;;;
2022/02/25 01:55:44;;;;;;;8.30;5.40;;;;;;;19.74;32.12;101384.49;103171;1319;61380;-83
2022/02/25 01:58:31;;;;;;;9.00;6.00;;;;;;;19.75;32.01;101381.09;103273;1322;61417;-84
2022/02/25 02:01:10;;;;;;;;;;;;;;;;;;;;;
2022/02/25 02:03:59;;;;;;;9.40;5.90;;;;;;;19.75;32.03;101377.17;103029;1323;76274;-82
2022/02/25 02:07:10;;;;;;;10.20;6.10;;;;;;;19.74;32.11;101371.47;103322;1316;61929;-85
2022/02/25 02:10:03;;;;;;;8.40;6.00;;;;;;;19.75;32.08;101369.13;103969;1317;61303;-83
2022/02/25 02:12:29;;;;;;;10.60;6.20;;;;;;;19.75;32.13;101366.81;104062;1316;73319;-82
2022/02/25 02:15:37;;;;;;;9.20;6.20;;;;;;;19.75;32.09;101365.21;103719;1318;73399;-83
2022/02/25 02:18:24;;;;;;;8.40;5.90;;;;;;;19.75;32.00;101361.97;103897;1316;61302;-82
2022/02/25 02:21:43;;;;;;;;;;;;;;;;;;;;;
2022/02/25 02:24:35;;;;;;;9.70;6.20;;;;;;;19.74;31.97;101354.88;102498;1332;72879;-84
2022/02/25 02:27:19;;;;;;;7.90;5.60;;;;;;;19.75;31.97;101356.96;102496;1332;76630;-83
2022/02/25 02:30:17;;;;;;;10.00;5.90;;;;;;;19.75;32.00;101355.17;102499;1330;61356;-86
2022/02/25 02:33:24;;;;;;;10.00;5.90;;;;;;;19.74;32.02;101353.06;102553;1330;61208;-82
2022/02/25 02:36:04;;;;;;;;;;;;;;;;;;;;;
2022/02/25 02:38:53;;;;;;;9.30;6.10;;;;;;;19.75;32.10;101349.27;102699;1327;75641;-81
2022/02/25 02:42:02;;;;;;;9.70;6.10;;;;;;;19.75;32.01;101349.44;102521;1330;61552;-85
2022/02/25 02:44:47;;;;;;;;;;;;;;;;;;;;;
2022/02/25 02:47:43;;;;;;;10.10;5.80;;;;;;;19.75;32.03;101347.67;102502;1331;72825;-84
2022/02/25 02:50:33;;;;;;;;;;;;;;;;;;;;;
2022/02/25 02:53:49;;;;;;;9.40;6.60;;;;;;;19.75;32.02;101351.77;102160;1334;61425;-85
2022/02/25 02:56:33;;;;;;;10.00;6.30;;;;;;;19.75;31.97;101351.59;102324;1334;61546;-84
2022/02/25 02:59:29;;;;;;;9.10;5.80;;;;;;;19.76;32.02;101354.25;102582;1325;73124;-82
2022/02/25 03:02:16;;;;;;;10.30;6.40;;;;;;;19.76;32.01;101353.36;103181;1320;75980;-80
2022/02/25 03:05:04;;;;;;;10.70;5.90;;;;;;;19.75;31.89;101355.69;102800;1326;61287;-83
2022/02/25 03:07:50;;;;;;;9.50;5.80;;;;;;;19.75;31.99;101350.34;102805;1325;61198;-87
2022/02/25 03:10:37;;;;;;;8.70;5.70;;;;;;;19.76;32.06;101339.61;102679;1325;61306;-85
2022/02/25 03:13:33;;;;;;;12.30;6.70;;;;;;;19.76;31.95;101341.02;102755;1326;75800;-87
2022/02/25 03:16:17;;;;;;;9.70;6.30;;;;;;;19.75;31.90;101343.57;102699;1326;62446;-83
2022/02/25 03:19:44;;;;;;;9.10;6.30;;;;;;;19.75;31.88;101345.17;102996;1322;61213;-82
2022/02/25 03:22:31;;;;;;;;;;;;;;;;;;;;;
2022/02/25 03:25:21;;;;;;;9.90;5.90;;;;;;;19.75;31.96;101341.59;102848;1323;74737;-81
2022/02/25 03:28:10;;;;;;;8.30;5.60;;;;;;;19.75;31.87;101337.83;103648;1316;61317;-82
2022/02/25 03:31:25;;;;;;;9.30;6.20;;;;;;;19.75;31.92;101335.17;103170;1322;61987;-83
2022/02/25 03:34:59;;;;;;;10.70;6.00;;;;;;;19.75;31.91;101329.83;103262;1322;72235;-83
2022/02/25 03:37:32;;;;;;;9.70;6.10;;;;;;;19.75;31.89;101328.56;102652;1329;74912;-83
2022/02/25 03:40:13;;;;;;;9.50;5.90;;;;;;;19.75;31.92;101328.41;102668;1328;61336;-84
2022/02/25 03:43:03;;;;;;;9.00;6.40;;;;;;;19.75;31.94;101329.97;102935;1323;61310;-88
2022/02/25 03:45:55;;;;;;;8.80;6.00;;;;;;;19.75;31.94;101326.41;103142;1323;73787;-85
2022/02/25 03:48:47;;;;;;;8.50;5.90;;;;;;;19.75;31.97;101327.48;103059;1321;75890;-82
2022/02/25 03:51:33;;;;;;;8.80;5.90;;;;;;;19.75;31.93;101327.16;102720;1327;61841;-84
2022/02/25 03:54:53;;;;;;;;;;;;;;;;;;;;;
2022/02/25 03:57:59;;;;;;;10.00;5.90;;;;;;;19.74;31.94;101318.05;101895;1338;71537;-84
2022/02/25 04:00:51;;;;;;;10.30;6.30;;;;;;;19.75;31.91;101314.98;101872;1338;74933;-83
2022/02/25 04:03:46;;;;;;;9.10;5.60;;;;;;;19.75;31.93;101316.61;101792;1344;61197;-83
2022/02/25 04:06:38;;;;;;;9.50;5.90;;;;;;;19.75;31.98;101316.98;101814;1343;61445;-86
2022/02/25 04:09:29;;;;;;;;;;;;;;;;;;;;;
2022/02/25 04:12:15;;;;;;;9.20;5.80;;;;;;;19.76;31.82;101316.91;101877;1341;74802;-87
2022/02/25 04:15:10;;;;;;;8.70;5.90;;;;;;;19.75;31.86;101323.22;101819;1341;61432;-84
2022/02/25 04:17:44;;;;;;;9.20;6.00;;;;;;;19.75;31.87;101318.56;101920;1338;61259;-82
2022/02/25 04:20:44;;;;;;;9.10;5.90;;;;;;;19.76;31.79;101320.81;101825;1338;72958;-83
2022/02/25 04:23:38;;;;;;;10.00;6.00;;;;;;;19.75;31.84;101323.54;101912;1338;75904;-87
2022/02/25 04:26:23;;;;;;;;;;;;;;;;;;;;;
2022/02/25 04:29:17;;;;;;;10.90;6.20;;;;;;;19.75;31.79;101320.54;101805;1341;61558;-81
2022/02/25 04:32:03;;;;;;;10.00;6.20;;;;;;;19.76;31.79;101328.90;101932;1335;74166;-84
2022/02/25 04:34:34;;;;;;;9.40;5.90;;;;;;;19.75;31.75;101326.07;102294;1332;75968;-83
2022/02/25 04:37:34;;;;;;;9.60;5.90;;;;;;;19.76;31.78;101327.83;102511;1332;61247;-84
2022/02/25 04:40:20;;;;;;;9.40;5.90;;;;;;;19.75;31.74;101329.63;102637;1323;61325;-84
2022/02/25 04:42:59;;;;;;;7.80;5.70;;;;;;;19.75;31.76;101324.45;103017;1323;74218;-83
2022/02/25 04:45:31;;;;;;;9.50;6.00;;;;;;;19.75;31.63;101320.17;102992;1323;76107;-83
2022/02/25 04:48:41;;;;;;;10.70;6.10;;;;;;;19.75;31.51;101323.59;102792;1323;61086;-79
2022/02/25 04:51:21;;;;;;;;;;;;;;;;;;;;;
2022/02/25 04:54:28;;;;;;;10.10;6.30;;;;;;;19.72;31.32;101319.08;103055;1323;73208;-82
2022/02/25 04:57:37;;;;;;;9.10;6.00;;;;;;;19.72;31.19;101312.85;102591;1327;75555;-85
2022/02/25 05:00:22;;;;;;;10.30;6.30;;;;;;;19.71;31.09;101307.71;102591;1328;63129;-83
2022/02/25 05:03:00;;;;;;;9.20;6.50;;;;;;;19.71;30.89;101304.15;102654;1323;61837;-83
2022/02/25 05:05:28;;;;;;;9.00;6.30;;;;;;;19.70;30.76;101304.91;102913;1325;72775;-83
2022/02/25 05:08:44;;;;;;;10.90;6.60;;;;;;;19.70;30.64;101303.33;102771;1325;73608;-82
2022/02/25 05:11:13;;;;;;;9.20;6.10;;;;;;;19.68;30.54;101301.44;103156;1323;61459;-83
2022/02/25 05:13:59;;;;;;;10.60;6.20;;;;;;;19.68;30.54;101298.98;102970;1323;61587;-85
2022/02/25 05:20:23;;;;;;;9.10;5.50;;;;;;;19.62;30.41;101300.23;103015;1323;73623;-82
2022/02/25 05:23:16;;;;;;;9.60;5.70;;;;;;;19.58;30.44;101299.70;103118;1323;61641;-83
2022/02/25 05:26:02;;;;;;;9.10;5.90;;;;;;;19.55;30.40;101300.96;103037;1323;61240;-83
2022/02/25 05:28:32;;;;;;;10.30;6.40;;;;;;;19.51;30.35;101295.84;103421;1317;72520;-82
2022/02/25 05:31:35;;;;;;;11.10;7.10;;;;;;;19.46;30.28;101295.03;103496;1319;76389;-83
2022/02/25 05:34:27;;;;;;;13.10;7.20;;;;;;;19.42;30.06;101295.78;104132;1309;61178;-83
2022/02/25 05:36:52;;;;;;;12.00;8.20;;;;;;;19.39;30.10;101295.80;104068;1309;59987;-81
2022/02/25 05:39:51;;;;;;;16.40;8.50;;;;;;;19.36;29.96;101297.72;104299;1309;73530;-83
2022/02/25 05:42:17;;;;;;;18.60;8.80;;;;;;;19.33;29.84;101299.69;104317;1308;76003;-83
2022/02/25 05:44:49;;;;;;;19.60;9.20;;;;;;;19.31;29.71;101294.85;104154;1309;64559;-81
2022/02/25 05:47:24;;;;;;;22.90;10.10;;;;;;;19.26;29.43;101290.78;104199;1309;61150;-81
2022/02/25 05:49:50;;;;;;;17.00;10.00;;;;;;;19.23;29.25;101292.40;104126;1309;72940;-79
2022/02/25 05:52:19;;;;;;;21.10;10.90;;;;;;;19.19;29.26;101293.70;104097;1309;61304;-80
2022/02/25 05:54:46;;;;;;;22.60;11.60;;;;;;;19.15;29.06;101290.88;103962;1309;61306;-79
2022/02/25 05:57:11;;;;;;;25.90;12.70;;;;;;;19.12;29.07;101288.39;103881;1309;60211;-79
2022/02/25 05:59:40;;;;;;;30.60;13.00;;;;;;;19.07;28.97;101287.76;104066;1308;72536;-79
2022/02/25 06:02:06;;;;;;;33.90;13.40;;;;;;;19.04;28.90;101291.48;103790;1312;59959;-80
2022/02/25 06:04:32;;;;;;;35.60;14.40;;;;;;;19.01;28.79;101289.33;103899;1309;60650;-82
2022/02/25 06:07:06;;;;;;;33.80;14.00;;;;;;;18.99;28.71;101290.31;103871;1309;61226;-80
2022/02/25 06:09:32;;;;;;;23.90;12.90;;;;;;;18.99;28.72;101286.58;103912;1309;73827;-80
2022/02/25 06:11:59;;;;;;;31.00;13.70;;;;;;;19.00;28.67;101283.68;103780;1310;61443;-79
2022/02/25 06:14:27;;;;;;;24.50;13.00;;;;;;;19.01;28.58;101280.73;103863;1309;61069;-81
2022/02/25 06:16:53;;;;;;;30.80;13.50;;;;;;;19.03;28.60;101274.76;104190;1309;61328;-79
2022/02/25 06:19:18;;;;;;;29.40;13.00;;;;;;;19.05;28.58;101270.17;103930;1310;61405;-80
2022/02/25 06:21:44;;;;;;;21.70;12.70;;;;;;;19.08;28.52;101270.92;104254;1309;61231;-79
2022/02/25 06:24:10;;;;;;;29.20;13.20;;;;;;;19.10;28.66;101273.66;103913;1309;61199;-79
2022/02/25 06:26:37;;;;;;;28.00;13.10;;;;;;;19.13;28.77;101268.70;104044;1309;61268;-80
2022/02/25 06:29:11;;;;;;;22.60;12.10;;;;;;;19.15;28.70;101270.55;103910;1309;61509;-80
2022/02/25 06:31:36;;;;;;;25.30;12.20;;;;;;;19.18;28.83;101267.36;105157;1308;74206;-79
2022/02/25 06:34:03;;;;;;;24.00;12.20;;;;;;;19.19;28.75;101265.29;104824;1310;59720;-79
2022/02/25 06:36:28;;;;;;;20.90;12.60;;;;;;;19.22;28.88;101264.40;103903;1309;61170;-79
2022/02/25 06:38:54;;;;;;;21.40;11.80;;;;;;;19.27;28.86;101262.39;103700;1312;60453;-79
2022/02/25 06:41:25;;;;;;;24.50;12.70;;;;;;;19.30;28.91;101262.39;103777;1311;61547;-79
2022/02/25 06:43:51;;;;;;;25.10;13.00;;;;;;;19.33;28.95;101264.55;104939;1311;60400;-79
2022/02/25 06:46:16;;;;;;;25.80;12.70;;;;;;;19.35;28.87;101270.65;104391;1312;209526;-80
2022/02/25 06:48:43;;;;;;;23.10;12.70;;;;;;;19.37;28.88;101273.55;103986;1308;61303;-79
2022/02/25 06:51:08;;;;;;;24.70;11.80;;;;;;;19.38;29.03;101275.66;103840;1311;61259;-80
2022/02/25 06:53:37;;;;;;;22.40;12.80;;;;;;;19.38;28.96;101274.77;103833;1308;61322;-82
2022/02/25 06:56:03;;;;;;;21.60;12.80;;;;;;;19.37;28.79;101269.33;104339;1308;61286;-80
2022/02/25 06:58:29;;;;;;;22.00;12.50;;;;;;;19.34;28.74;101268.20;104019;1308;60894;-79
2022/02/25 07:00:55;;;;;;;23.00;11.40;;;;;;;19.30;28.71;101269.87;103630;1311;61370;-80
2022/02/25 07:03:20;;;;;;;19.80;11.70;;;;;;;19.27;28.62;101269.52;103830;1309;60076;-79
2022/02/25 07:05:46;;;;;;;22.80;11.30;;;;;;;19.24;28.54;101269.30;103976;1309;61206;-80
2022/02/25 07:08:12;;;;;;;21.30;11.70;;;;;;;19.22;28.38;101269.93;103905;1310;61383;-79
2022/02/25 07:10:37;;;;;;;17.30;11.10;;;;;;;19.21;28.45;101267.87;103877;1312;61272;-79
2022/02/25 07:13:23;;;;;;;17.30;10.60;;;;;;;19.21;28.30;101272.35;103950;1309;74548;-79
2022/02/25 07:15:50;;;;;;;26.10;10.80;;;;;;;19.21;28.19;101270.57;104054;1308;61322;-79
2022/02/25 07:18:39;;;;;;;24.30;11.20;;;;;;;19.21;28.24;101272.16;103923;1311;61286;-80
2022/02/25 07:21:04;;;;;;;21.60;10.70;;;;;;;19.21;28.24;101271.09;103415;1316;73000;-80
2022/02/25 07:23:30;;;;;;;17.10;9.80;;;;;;;19.22;28.16;101274.81;103236;1317;61476;-79
2022/02/25 07:25:56;;;;;;;20.30;10.50;;;;;;;19.21;28.06;101275.38;103218;1318;65206;-80
2022/02/25 07:28:25;;;;;;;21.60;10.70;;;;;;;19.21;28.06;101272.36;103157;1319;61342;-81
2022/02/25 07:30:53;;;;;;;20.80;9.80;;;;;;;19.20;28.13;101270.79;103030;1319;61188;-82
2022/02/25 07:33:23;;;;;;;20.30;10.50;;;;;;;19.18;28.22;101265.54;103085;1317;75066;-82
2022/02/25 07:36:05;;;;;;;19.90;9.60;;;;;;;19.14;28.44;101258.25;103548;1316;61521;-80
2022/02/25 07:38:40;;;;;;;17.60;10.20;;;;;;;19.11;28.56;101260.21;103317;1316;61173;-80
2022/02/25 07:41:28;;;;;;;14.10;9.60;;;;;;;19.07;28.59;101262.75;102567;1324;72856;-81
2022/02/25 07:43:57;;;;;;;18.00;9.40;;;;;;;19.05;28.61;101265.90;102576;1324;74015;-80
2022/02/25 07:46:23;;;;;;;14.30;8.70;;;;;;;19.03;28.60;101267.42;102783;1326;61317;-80
2022/02/25 07:48:49;;;;;;;17.40;9.30;;;;;;;19.02;28.44;101266.45;102481;1325;61316;-80
2022/02/25 07:51:14;;;;;;;16.40;8.90;;;;;;;19.00;28.46;101267.10;102590;1323;61348;-78
2022/02/25 07:53:40;;;;;;;19.10;9.20;;;;;;;18.96;28.36;101266.40;102506;1323;61387;-80
2022/02/25 07:56:06;;;;;;;16.80;7.60;;;;;;;18.93;28.15;101262.48;102336;1326;61323;-80
2022/02/25 07:58:32;;;;;;;13.90;7.50;;;;;;;18.89;28.39;101263.55;102793;1317;60397;-79
2022/02/25 08:00:59;;;;;;;14.10;7.40;;;;;;;18.88;28.58;101255.58;104006;1319;60589;-79
2022/02/25 08:03:24;;;;;;;14.70;6.70;;;;;;;18.88;28.52;101253.08;103139;1319;74064;-79
2022/02/25 08:05:50;;;;;;;17.50;6.60;;;;;;;18.88;28.71;101250.77;103318;1316;61299;-79
2022/02/25 08:08:15;;;;;;;18.20;6.60;;;;;;;18.88;28.92;101248.99;103157;1317;61422;-80
2022/02/25 08:10:41;;;;;;;12.30;6.50;;;;;;;18.89;28.85;101248.07;103363;1317;61409;-79
2022/02/25 08:13:10;;;;;;;16.70;6.00;;;;;;;18.89;28.78;101250.89;103162;1318;60388;-79
2022/02/25 08:15:37;;;;;;;12.10;6.00;;;;;;;18.94;28.76;101247.64;103403;1317;61233;-80
2022/02/25 08:18:07;;;;;;;12.60;6.10;;;;;;;18.99;28.83;101247.52;103114;1312;61357;-82
2022/02/25 08:20:33;;;;;;;;;;;;;;;19.05;28.84;101245.38;104079;1309;61250;-79
2022/02/25 08:23:01;;;;;;;12.10;5.90;;;;;;;19.09;28.86;101247.85;103922;1309;61462;-77
2022/02/25 08:25:29;;;;;;;11.50;5.90;;;;;;;19.16;28.84;101246.21;103907;1311;74799;-79
2022/02/25 08:27:56;;;;;;;11.60;5.50;;;;;;;19.22;28.77;101247.98;104311;1311;61204;-78
2022/02/25 08:30:22;;;;;;;10.70;5.60;;;;;;;19.28;28.86;101251.95;104000;1312;61504;-79
2022/02/25 08:32:48;;;;;;;12.00;5.90;;;;;;;19.34;28.91;101252.70;103925;1312;61343;-80
2022/02/25 08:35:15;;;;;;;13.00;6.10;;;;;;;19.39;28.96;101249.02;103859;1312;61469;-79
2022/02/25 08:37:40;;;;;;;12.90;6.40;;;;;;;19.44;28.97;101252.30;104358;1312;60736;-78
2022/02/25 08:40:07;;;;;;;11.20;6.50;;;;;;;19.47;28.80;101248.76;103890;1312;63058;-79
2022/02/25 08:42:35;;;;;;;12.00;6.20;;;;;;;19.51;28.70;101243.53;104340;1311;61413;-79
2022/02/25 08:45:03;;;;;;;13.20;6.80;;;;;;;19.53;28.52;101239.98;104006;1311;74565;-79
2022/02/25 08:47:31;;;;;;;10.00;5.90;;;;;;;19.53;28.64;101233.39;104099;1311;61096;-79
2022/02/25 08:49:57;;;;;;;12.20;6.20;;;;;;;19.54;28.58;101231.40;103930;1311;61936;-80
2022/02/25 08:52:23;;;;;;;14.50;6.30;;;;;;;19.54;28.61;101233.52;103751;1312;61338;-79
2022/02/25 08:54:49;;;;;;;13.10;6.20;;;;;;;19.56;28.46;101236.99;103841;1312;61284;-81
2022/02/25 08:57:15;;;;;;;13.70;6.50;;;;;;;19.56;28.55;101240.04;104010;1308;59930;-80
2022/02/25 08:59:42;;;;;;;17.90;6.80;;;;;;;19.55;28.61;101240.98;103867;1309;59825;-80
2022/02/25 09:02:09;;;;;;;13.10;6.20;;;;;;;19.50;28.78;101238.21;104893;1309;59664;-80
2022/02/25 09:04:34;;;;;;;12.20;6.80;;;;;;;19.45;28.91;101234.73;104630;1308;59482;-79
2022/02/25 09:07:01;;;;;;;10.10;5.40;;;;;;;19.45;28.94;101228.52;104906;1309;59619;-80
2022/02/25 09:09:27;;;;;;;10.60;5.90;;;;;;;19.44;29.15;101225.71;104483;1309;61246;-80
2022/02/25 09:11:53;;;;;;;15.60;6.80;;;;;;;19.44;29.12;101227.16;103545;1310;61264;-79
2022/02/25 09:14:23;;;;;;;14.30;6.10;;;;;;;19.43;28.93;101220.23;103626;1310;71964;-80
2022/02/25 09:16:49;;;;;;;11.90;6.60;;;;;;;19.43;28.83;101218.29;103557;1309;74975;-79
2022/02/25 09:19:15;;;;;;;14.60;6.20;;;;;;;19.42;28.75;101219.55;103659;1309;61423;-79
2022/02/25 09:21:40;;;;;;;11.40;6.20;;;;;;;19.45;28.64;101218.67;103710;1308;63653;-80
2022/02/25 09:24:07;;;;;;;13.10;5.60;;;;;;;19.49;28.61;101215.64;104111;1309;60830;-79
2022/02/25 09:26:33;;;;;;;12.80;6.60;;;;;;;19.52;28.62;101211.50;104044;1306;61307;-79
2022/02/25 09:29:00;;;;;;;13.70;5.70;;;;;;;19.55;28.79;101205.46;104027;1308;61323;-80
2022/02/25 09:31:26;;;;;;;11.40;6.00;;;;;;;19.58;28.68;101204.52;103917;1308;61177;-79
2022/02/25 09:33:52;;;;;;;13.00;6.30;;;;;;;19.60;28.74;101200.67;103909;1309;59410;-80
2022/02/25 09:36:17;;;;;;;16.60;5.80;;;;;;;19.60;28.69;101195.88;103868;1309;61397;-81
2022/02/25 09:38:43;;;;;;;12.10;6.00;;;;;;;19.58;28.82;101186.33;104058;1308;76080;-80
2022/02/25 09:41:09;;;;;;;13.30;5.80;;;;;;;19.58;28.87;101186.35;103962;1309;61399;-80
2022/02/25 09:43:35;;;;;;;13.70;5.90;;;;;;;19.57;28.72;101173.55;104006;1309;61806;-80
2022/02/25 09:46:05;;;;;;;13.30;5.30;;;;;;;19.57;28.60;101169.63;103931;1308;71866;-79
2022/02/25 09:48:31;;;;;;;17.70;6.10;;;;;;;19.58;28.75;101168.67;103880;1309;75500;-80
2022/02/25 09:50:58;;;;;;;11.20;5.60;;;;;;;19.58;28.85;101159.39;103781;1309;59542;-80
2022/02/25 09:53:26;;;;;;;14.10;6.40;;;;;;;19.57;28.70;101157.11;104980;1308;63589;-79
2022/02/25 09:55:52;;;;;;;13.20;5.60;;;;;;;19.54;28.75;101155.84;104182;1307;73283;-79
2022/02/25 09:58:18;;;;;;;11.40;5.50;;;;;;;19.50;28.64;101146.30;103956;1309;75637;-79
2022/02/25 10:00:44;;;;;;;16.30;5.10;;;;;;;19.43;28.90;101140.48;104003;1309;61377;-79
2022/02/25 10:03:12;;;;;;;10.70;5.10;;;;;;;19.39;28.86;101140.30;103916;1308;60101;-80
2022/02/25 10:05:39;;;;;;;9.80;5.00;;;;;;;19.36;29.19;101142.15;104997;1308;60497;-79
2022/02/25 10:08:19;;;;;;;13.30;5.40;;;;;;;19.31;29.29;101138.82;104533;1306;76500;-80
2022/02/25 10:10:46;;;;;;;10.10;5.30;;;;;;;19.30;29.32;101139.07;104979;1308;61512;-79
2022/02/25 10:13:12;;;;;;;18.40;5.80;;;;;;;19.29;29.37;101130.77;104361;1308;61072;-80
2022/02/25 10:15:39;;;;;;;13.30;5.10;;;;;;;19.28;29.47;101126.16;103940;1309;72797;-80
2022/02/25 10:18:06;;;;;;;13.00;5.50;;;;;;;19.29;29.32;101118.06;104015;1309;75786;-80
2022/02/25 10:20:33;;;;;;;12.90;5.00;;;;;;;19.31;29.32;101110.61;103940;1309;61164;-79
2022/02/25 10:22:58;;;;;;;12.40;5.20;;;;;;;19.34;29.49;101104.94;104998;1308;59342;-78
2022/02/25 10:25:25;;;;;;;12.70;4.70;;;;;;;19.37;29.71;101104.76;104261;1308;61314;-79
2022/02/25 10:27:51;;;;;;;14.00;5.00;;;;;;;19.39;29.72;101101.98;104982;1307;59499;-78
2022/02/25 10:30:21;;;;;;;12.60;5.10;;;;;;;19.42;29.76;101099.30;105053;1307;59383;-79
2022/02/25 10:32:49;;;;;;;12.10;5.00;;;;;;;19.45;29.84;101095.00;105149;1307;59529;-79
2022/02/25 10:35:34;;;;;;;11.50;5.10;;;;;;;19.48;29.92;101090.73;104959;1309;73066;-79
2022/02/25 10:38:16;;;;;;;13.00;4.80;;;;;;;19.49;30.06;101082.42;104964;1309;74705;-79
2022/02/25 10:40:44;;;;;;;14.20;5.10;;;;;;;19.53;30.34;101076.14;105039;1308;61262;-79
2022/02/25 10:43:11;;;;;;;10.30;4.50;;;;;;;19.57;30.51;101072.50;104830;1309;60515;-79
2022/02/25 10:45:39;;;;;;;10.10;4.70;;;;;;;19.60;30.52;101069.11;104329;1308;72926;-79
2022/02/25 10:48:07;;;;;;;12.40;5.20;;;;;;;19.62;30.47;101066.35;104192;1308;76161;-81
2022/02/25 10:50:47;;;;;;;10.70;5.10;;;;;;;19.62;30.42;101059.91;103951;1309;61219;-80
2022/02/25 10:53:13;;;;;;;11.00;5.60;;;;;;;19.59;30.48;101055.03;103929;1309;61986;-82
2022/02/25 10:55:40;;;;;;;15.00;6.00;;;;;;;19.53;30.33;101049.00;104285;1309;61391;-81
2022/02/25 10:58:05;;;;;;;14.60;6.00;;;;;;;19.45;30.30;101045.94;104668;1308;59594;-79
2022/02/25 11:00:31;;;;;;;13.30;6.30;;;;;;;19.40;30.22;101047.09;104852;1309;60435;-79
2022/02/25 11:02:59;;;;;;;16.60;6.50;;;;;;;19.35;30.15;101043.83;104772;1309;59507;-79
2022/02/25 11:05:36;;;;;;;13.20;6.40;;;;;;;19.32;30.26;101035.80;104885;1309;60343;-80
2022/02/25 11:08:03;;;;;;;12.60;7.30;;;;;;;19.28;30.30;101031.23;104799;1309;74715;-79
2022/02/25 11:10:30;;;;;;;16.70;6.60;;;;;;;19.22;29.96;101021.05;104835;1308;60464;-79
2022/02/25 11:12:57;;;;;;;15.40;7.00;;;;;;;19.19;30.04;101016.40;104744;1309;60752;-82
2022/02/25 11:15:26;;;;;;;14.20;6.40;;;;;;;19.19;30.11;101012.46;105033;1308;72755;-79
2022/02/25 11:17:51;;;;;;;12.00;6.20;;;;;;;19.20;30.15;101009.92;105084;1307;74499;-79
2022/02/25 11:20:24;;;;;;;11.30;5.80;;;;;;;19.19;30.03;101011.05;104830;1309;59786;-79
2022/02/25 11:22:53;;;;;;;11.80;6.20;;;;;;;19.17;30.03;101002.41;104826;1309;59273;-78
2022/02/25 11:25:18;;;;;;;16.30;6.00;;;;;;;19.18;30.02;101000.21;104938;1309;73154;-80
2022/02/25 11:27:44;;;;;;;10.30;5.40;;;;;;;19.21;29.98;100998.77;104961;1308;60227;-80
2022/02/25 11:30:22;;;;;;;13.90;5.30;;;;;;;19.24;30.04;100996.64;104852;1309;60337;-79
2022/02/25 11:32:58;;;;;;;11.00;5.30;;;;;;;19.27;29.92;100990.62;104787;1308;59661;-80
2022/02/25 11:35:28;;;;;;;11.10;5.10;;;;;;;19.30;29.90;100983.67;105050;1306;72755;-79
2022/02/25 11:38:05;;;;;;;13.70;5.30;;;;;;;19.32;29.86;100980.86;104941;1308;74725;-79
2022/02/25 11:40:55;;;;;;;12.10;5.10;;;;;;;19.34;29.89;100977.54;105054;1306;60650;-79
2022/02/25 11:43:34;;;;;;;10.60;4.90;;;;;;;19.33;29.78;100974.91;105045;1307;61619;-79
2022/02/25 11:45:59;;;;;;;12.90;5.00;;;;;;;19.32;29.88;100970.48;104923;1308;73771;-79
2022/02/25 11:48:40;;;;;;;11.60;4.40;;;;;;;19.32;29.80;100969.97;104987;1307;60474;-79
2022/02/25 11:51:08;;;;;;;11.40;5.30;;;;;;;19.32;29.82;100967.29;104891;1308;61331;-79
2022/02/25 11:53:34;;;;;;;13.30;5.60;;;;;;;19.27;29.85;100969.33;104633;1308;61579;-82
2022/02/25 11:56:14;;;;;;;10.90;5.00;;;;;;;19.20;29.69;100965.35;104740;1308;59597;-80
2022/02/25 11:58:41;;;;;;;12.70;6.20;;;;;;;19.14;29.75;100966.21;104955;1307;75099;-80
2022/02/25 12:01:20;;;;;;;10.20;5.00;;;;;;;19.10;29.68;100965.04;104841;1307;60440;-79
2022/02/25 12:04:12;;;;;;;12.30;5.80;;;;;;;19.05;29.67;100972.80;104781;1306;61403;-80
2022/02/25 12:06:59;;;;;;;13.00;5.30;;;;;;;19.02;29.77;100966.73;105020;1308;74067;-79
2022/02/25 12:09:53;;;;;;;11.20;5.30;;;;;;;18.99;29.74;100964.95;105045;1308;76334;-80
2022/02/25 12:12:45;;;;;;;12.70;5.00;;;;;;;18.91;29.84;100963.48;105112;1308;60715;-79
2022/02/25 12:15:14;;;;;;;12.50;5.30;;;;;;;18.86;29.87;100961.09;104651;1313;60326;-80
2022/02/25 12:17:47;;;;;;;18.50;5.70;;;;;;;18.87;29.90;100962.27;104692;1314;73957;-79
2022/02/25 12:20:16;;;;;;;9.60;4.70;;;;;;;18.87;29.87;100955.50;104601;1313;75073;-79
2022/02/25 12:23:05;;;;;;;13.70;5.10;;;;;;;18.88;29.97;100947.77;104641;1313;60331;-80
2022/02/25 12:25:40;;;;;;;12.00;4.60;;;;;;;18.93;30.27;100939.09;104626;1314;60520;-79
2022/02/25 12:28:09;;;;;;;11.40;4.80;;;;;;;18.96;30.38;100935.73;104527;1314;73746;-79